South Bloomingville, Ohio
Current Conditions -  °F | °C
As of 11:14 AM on Tuesday 21 Oct 2014 (Local Time) from KRZT Reporting Station
Overcast Overcast  
Wind Chill: 50°   Ceiling: 2400
Heat Index: 50°   Visibility: 10mi
Dew Point: 43°   Wind: 7mph
Humidity: 76%   Direction: 340°NNW
Pressure: 29.99"   Gusts: 13mph
Location:  39.42°N, 82.6°W
Report Text: KRZT 211514Z AUTO 34006G11KT 10SM SCT017 BKN024 OVC044 10/06 A2999 RMK AO2
Loading
Personal Weather Stations






























Interactive Weather Map New forecast layout! Learn more

10-Day Weather Forecast

Advertisements
Track Severe Weather on mobile